Time;durP1;ratioP1;P1;durP2;ratioP2;P2;SDS_P1;SDS_P2;PMS_P1;PMS_P2;Temp;Humidity;BMP_temperature;BMP_pressure;BME280_temperature;BME280_humidity;BME280_pressure;Samples;Min_cycle;Max_cycle;Signal;HPM_P1;HPM_P2
2022/06/17 00:00:53;;;;;;;9.43;2.80;;;26.70;67.30;;;;;;5015838;28;20026;-72
2022/06/17 00:03:20;;;;;;;3.63;2.03;;;26.60;67.30;;;;;;5015868;28;20028;-72
2022/06/17 00:05:46;;;;;;;5.43;2.03;;;26.70;67.50;;;;;;5015661;28;20022;-72
2022/06/17 00:08:25;;;;;;;4.18;1.98;;;26.60;67.50;;;;;;4998056;28;20487;-70
2022/06/17 00:10:50;;;;;;;4.28;2.00;;;26.70;67.80;;;;;;5014395;28;20490;-71
2022/06/17 00:13:18;;;;;;;4.47;2.08;;;26.70;68.10;;;;;;5015647;28;20030;-70
2022/06/17 00:15:45;;;;;;;3.90;2.05;;;26.70;68.10;;;;;;5015343;28;20055;-72
2022/06/17 00:18:12;;;;;;;5.07;2.15;;;26.60;68.00;;;;;;5014234;28;20030;-71
2022/06/17 00:20:38;;;;;;;5.68;2.30;;;26.60;68.60;;;;;;5015406;28;20030;-72
2022/06/17 00:23:10;;;;;;;4.57;2.30;;;26.60;69.00;;;;;;5015428;28;20357;-71
2022/06/17 00:25:37;;;;;;;4.65;2.10;;;26.50;69.30;;;;;;5015474;28;20440;-71
2022/06/17 00:28:10;;;;;;;6.43;2.10;;;26.50;69.00;;;;;;5015108;28;20431;-72
2022/06/17 00:30:36;;;;;;;5.05;2.30;;;26.50;69.10;;;;;;5015219;28;20022;-71
2022/06/17 00:33:02;;;;;;;5.55;2.40;;;26.60;69.40;;;;;;5015385;28;20052;-71
2022/06/17 00:35:33;;;;;;;4.40;2.25;;;26.60;69.60;;;;;;5015218;28;20018;-71
2022/06/17 00:38:01;;;;;;;4.55;1.92;;;26.60;70.10;;;;;;5015304;28;20399;-72
2022/06/17 00:40:29;;;;;;;5.28;2.10;;;26.60;70.60;;;;;;5013896;28;20083;-71
2022/06/17 00:42:56;;;;;;;5.93;2.55;;;26.60;70.90;;;;;;5014965;28;20026;-71
2022/06/17 00:45:53;;;;;;;9.98;2.60;;;26.60;70.60;;;;;;5014901;28;20502;-72
2022/06/17 00:48:25;;;;;;;6.40;4.55;;;26.60;70.60;;;;;;5014900;28;20030;-71
2022/06/17 00:50:59;;;;;;;8.30;2.85;;;26.60;70.50;;;;;;5014544;28;20067;-71
2022/06/17 00:53:32;;;;;;;7.03;2.78;;;26.60;70.00;;;;;;5013540;28;20077;-71
2022/06/17 00:56:12;;;;;;;6.05;2.60;;;26.50;69.20;;;;;;5015155;28;20383;-71
2022/06/17 00:58:59;;;;;;;6.10;2.28;;;26.50;68.80;;;;;;5014816;28;20026;-72
2022/06/17 01:01:25;;;;;;;7.82;4.50;;;26.50;67.90;;;;;;5015072;28;20030;-72
2022/06/17 01:03:54;;;;;;;7.70;3.58;;;26.40;68.20;;;;;;5014620;28;20038;-71
2022/06/17 01:06:23;;;;;;;5.13;2.30;;;26.40;66.80;;;;;;5014572;28;20025;-71
2022/06/17 01:11:43;;;;;;;;;;;26.40;66.10;;;;;;5014791;28;20129;-73
2022/06/17 01:14:12;;;;;;;7.43;4.13;;;26.40;66.10;;;;;;5015918;28;20020;-71
2022/06/17 01:16:41;;;;;;;5.68;2.88;;;26.40;65.60;;;;;;5015938;28;20026;-71
2022/06/17 01:19:22;;;;;;;7.10;2.40;;;26.40;65.30;;;;;;5015610;28;20030;-72
2022/06/17 01:22:13;;;;;;;6.82;2.55;;;26.40;64.90;;;;;;5015889;28;20060;-72
2022/06/17 01:24:41;;;;;;;7.57;3.08;;;26.40;64.70;;;;;;5014396;28;20022;-71
2022/06/17 01:27:07;;;;;;;6.00;2.80;;;26.30;64.70;;;;;;5012674;28;20479;-71
2022/06/17 01:29:34;;;;;;;7.15;2.35;;;26.30;64.00;;;;;;5014013;28;20108;-71
2022/06/17 01:32:00;;;;;;;8.15;2.80;;;26.30;63.80;;;;;;5014030;28;20018;-71
2022/06/17 01:34:26;;;;;;;8.55;2.85;;;26.20;63.10;;;;;;5013972;28;20026;-70
2022/06/17 01:36:53;;;;;;;7.53;2.60;;;26.20;62.80;;;;;;5012698;28;20356;-72
2022/06/17 01:39:20;;;;;;;5.82;2.80;;;26.10;62.40;;;;;;5012790;28;20018;-70
2022/06/17 01:41:47;;;;;;;8.30;2.90;;;26.20;63.00;;;;;;5014110;28;20030;-71
2022/06/17 01:44:22;;;;;;;5.40;2.72;;;26.20;61.60;;;;;;5013992;28;20497;-71
2022/06/17 01:46:54;;;;;;;7.03;3.05;;;26.20;61.00;;;;;;5013745;28;20045;-70
2022/06/17 01:49:23;;;;;;;10.43;2.60;;;26.30;60.00;;;;;;5014129;28;20076;-71
2022/06/17 01:52:13;;;;;;;9.02;2.97;;;26.20;58.80;;;;;;5013634;28;20046;-71
2022/06/17 01:55:03;;;;;;;8.50;3.05;;;26.10;58.40;;;;;;5013922;28;20041;-71
2022/06/17 01:57:35;;;;;;;6.43;2.63;;;26.10;58.20;;;;;;5013618;28;20116;-70
2022/06/17 02:00:15;;;;;;;9.13;3.35;;;26.10;57.60;;;;;;5013461;28;20025;-72
2022/06/17 02:02:43;;;;;;;9.52;3.08;;;26.10;56.90;;;;;;5013446;28;20065;-71
2022/06/17 02:05:10;;;;;;;11.68;3.40;;;26.10;56.60;;;;;;5013587;28;20072;-72
2022/06/17 02:07:45;;;;;;;10.32;2.95;;;26.10;56.30;;;;;;5013675;28;20041;-70
2022/06/17 02:10:11;;;;;;;7.10;3.33;;;26.00;55.50;;;;;;5013000;28;20022;-71
2022/06/17 02:12:37;;;;;;;11.52;3.17;;;26.00;56.30;;;;;;5013460;28;20022;-72
2022/06/17 02:15:04;;;;;;;10.38;3.15;;;25.90;55.50;;;;;;5012088;28;20459;-71
2022/06/17 02:17:35;;;;;;;7.43;2.85;;;26.00;55.30;;;;;;5013609;28;20021;-71
2022/06/17 02:20:01;;;;;;;6.68;3.10;;;25.90;55.20;;;;;;5013276;28;20309;-71
2022/06/17 02:22:30;;;;;;;9.38;3.65;;;25.90;54.80;;;;;;5013328;28;20105;-71
2022/06/17 02:25:00;;;;;;;10.70;3.08;;;25.90;54.70;;;;;;5013511;28;20026;-70
2022/06/17 02:27:28;;;;;;;7.80;3.00;;;25.90;54.90;;;;;;5013249;28;20104;-71
2022/06/17 02:29:56;;;;;;;6.82;3.05;;;25.90;55.00;;;;;;5013237;28;20018;-70
2022/06/17 02:32:22;;;;;;;10.05;3.47;;;25.90;54.80;;;;;;5013132;28;20099;-71
2022/06/17 02:35:11;;;;;;;12.00;4.07;;;25.90;54.50;;;;;;5013245;28;20395;-72
2022/06/17 02:37:37;;;;;;;9.93;3.50;;;25.90;55.10;;;;;;4985366;28;20084;-71
2022/06/17 02:40:21;;;;;;;8.93;4.15;;;25.90;55.60;;;;;;5013069;28;20482;-70
2022/06/17 02:42:47;;;;;;;7.13;3.72;;;25.90;55.80;;;;;;5013120;28;20041;-70
2022/06/17 02:45:18;;;;;;;11.80;4.00;;;25.80;56.60;;;;;;5012924;28;20390;-71
2022/06/17 02:47:44;;;;;;;10.10;4.25;;;25.80;57.20;;;;;;5013088;28;20033;-71
2022/06/17 02:50:16;;;;;;;11.23;4.75;;;25.80;57.70;;;;;;5013139;28;20120;-70
2022/06/17 02:52:42;;;;;;;11.35;4.05;;;25.80;58.30;;;;;;5012101;28;20356;-70
2022/06/17 02:55:18;;;;;;;7.00;3.97;;;25.70;58.00;;;;;;5013103;28;20083;-71
2022/06/17 02:57:47;;;;;;;10.77;4.03;;;25.70;58.30;;;;;;5013209;28;20030;-72
2022/06/17 03:00:13;;;;;;;7.55;3.88;;;25.70;58.40;;;;;;5013551;28;20460;-70
2022/06/17 03:02:47;;;;;;;7.63;4.45;;;25.60;59.00;;;;;;5012941;28;20171;-72
2022/06/17 03:05:28;;;;;;;12.13;4.20;;;25.60;58.90;;;;;;5012822;28;20040;-70
2022/06/17 03:07:56;;;;;;;10.07;3.92;;;25.50;59.50;;;;;;5012733;28;20428;-72
2022/06/17 03:10:32;;;;;;;10.13;4.82;;;25.50;59.90;;;;;;5012637;28;20030;-73
2022/06/17 03:13:16;;;;;;;10.18;4.93;;;25.50;60.50;;;;;;5012933;28;20574;-71
2022/06/17 03:15:46;;;;;;;8.70;4.65;;;25.50;60.30;;;;;;5012926;28;20383;-71
2022/06/17 03:18:13;;;;;;;8.43;4.60;;;25.50;60.50;;;;;;5012676;28;20022;-71
2022/06/17 03:20:41;;;;;;;12.77;5.28;;;25.40;61.10;;;;;;5012787;28;20570;-71
2022/06/17 03:23:13;;;;;;;10.70;4.65;;;25.40;61.80;;;;;;5014988;28;20101;-70
2022/06/17 03:25:52;;;;;;;11.37;4.73;;;25.40;62.10;;;;;;5016696;28;20097;-71
2022/06/17 03:28:32;;;;;;;9.85;4.30;;;25.40;62.60;;;;;;5016402;28;20045;-71
2022/06/17 03:31:07;;;;;;;11.77;4.90;;;25.40;63.10;;;;;;5016264;28;20029;-72
2022/06/17 03:33:44;;;;;;;12.07;5.03;;;25.30;62.00;;;;;;5016435;28;20101;-70
2022/06/17 03:36:21;;;;;;;8.68;4.85;;;25.30;61.80;;;;;;5016266;28;20080;-70
2022/06/17 03:38:56;;;;;;;8.32;4.43;;;25.20;60.30;;;;;;5015087;28;20018;-70
2022/06/17 03:41:51;;;;;;;10.80;3.90;;;25.20;59.80;;;;;;5016334;28;20026;-71
2022/06/17 03:44:20;;;;;;;10.73;4.57;;;25.20;58.50;;;;;;5013381;28;20041;-71
2022/06/17 03:47:02;;;;;;;9.85;3.92;;;25.20;58.50;;;;;;5015987;28;20029;-71
2022/06/17 03:49:42;;;;;;;15.77;4.93;;;25.10;58.00;;;;;;5016401;28;20030;-71
2022/06/17 03:52:43;;;;;;;10.00;4.55;;;25.10;57.80;;;;;;5014676;28;20399;-71
2022/06/17 03:55:18;;;;;;;12.75;3.95;;;25.20;57.30;;;;;;5012417;28;20029;-70
2022/06/17 03:57:46;;;;;;;9.40;3.97;;;25.20;57.00;;;;;;5016194;28;20033;-71
2022/06/17 04:00:31;;;;;;;9.30;4.20;;;25.10;56.60;;;;;;5015488;28;20053;-71
2022/06/17 04:03:00;;;;;;;10.95;4.10;;;25.20;56.10;;;;;;5016055;28;20026;-70
2022/06/17 04:05:27;;;;;;;10.75;4.38;;;25.20;56.10;;;;;;5015896;28;20339;-72
2022/06/17 04:07:53;;;;;;;10.10;4.35;;;25.20;56.10;;;;;;5014277;28;20092;-71
2022/06/17 04:10:21;;;;;;;11.70;4.22;;;25.30;55.90;;;;;;5015523;28;20490;-70
2022/06/17 04:12:49;;;;;;;10.73;4.20;;;25.30;56.00;;;;;;5015491;28;20033;-70
2022/06/17 04:15:41;;;;;;;9.75;4.30;;;25.30;55.80;;;;;;5015774;28;20044;-72
2022/06/17 04:18:08;;;;;;;8.77;4.50;;;25.20;55.80;;;;;;5004776;28;20176;-71
2022/06/17 04:20:51;;;;;;;14.90;4.43;;;25.20;55.60;;;;;;5015277;28;20467;-72
2022/06/17 04:23:26;;;;;;;10.50;3.87;;;25.20;55.70;;;;;;5015393;28;20022;-70
2022/06/17 04:25:55;;;;;;;12.82;4.35;;;25.30;56.00;;;;;;5015668;28;20471;-71
2022/06/17 04:28:25;;;;;;;15.38;4.53;;;25.30;55.70;;;;;;5015217;28;20030;-73
2022/06/17 04:30:56;;;;;;;11.18;4.28;;;25.30;55.90;;;;;;5014030;28;20087;-71
2022/06/17 04:33:27;;;;;;;9.65;4.28;;;25.30;55.80;;;;;;5014979;28;20030;-72
2022/06/17 04:35:59;;;;;;;10.15;4.05;;;25.20;56.00;;;;;;5015260;28;20022;-70
2022/06/17 04:38:27;;;;;;;12.18;4.13;;;25.20;55.90;;;;;;5015172;28;20022;-71
2022/06/17 04:40:57;;;;;;;13.35;4.10;;;25.20;55.70;;;;;;5015272;28;20017;-71
2022/06/17 04:43:37;;;;;;;9.95;3.95;;;25.20;55.50;;;;;;5015125;28;20041;-73
2022/06/17 04:46:09;;;;;;;20.60;5.82;;;25.30;55.50;;;;;;5015009;28;20096;-71
2022/06/17 04:48:41;;;;;;;11.15;3.70;;;25.30;54.90;;;;;;5014993;28;20033;-71
2022/06/17 04:51:08;;;;;;;17.52;4.55;;;25.30;54.80;;;;;;5014717;28;20384;-72
2022/06/17 04:53:38;;;;;;;10.95;4.20;;;25.20;54.90;;;;;;5014758;28;20030;-71
2022/06/17 04:56:08;;;;;;;14.02;4.03;;;25.30;54.80;;;;;;5014994;28;20463;-72
2022/06/17 04:58:33;;;;;;;11.20;4.00;;;25.30;54.60;;;;;;5014941;28;20510;-71
2022/06/17 05:00:59;;;;;;;14.52;4.20;;;25.30;54.50;;;;;;5014603;28;20034;-72
2022/06/17 05:03:29;;;;;;;12.70;4.75;;;25.40;54.20;;;;;;5014475;28;20467;-71
2022/06/17 05:05:55;;;;;;;19.20;4.25;;;25.30;54.10;;;;;;4999070;28;20026;-71
2022/06/17 05:08:27;;;;;;;15.18;4.82;;;25.40;54.00;;;;;;4994555;28;20554;-71
2022/06/17 05:10:59;;;;;;;10.52;4.28;;;25.50;52.70;;;;;;4995067;28;20105;-71
2022/06/17 05:13:30;;;;;;;10.18;4.30;;;25.70;53.60;;;;;;4994968;28;20419;-72
2022/06/17 05:15:56;;;;;;;11.63;4.38;;;25.70;52.40;;;;;;4995465;28;20384;-70
2022/06/17 05:18:22;;;;;;;14.95;4.15;;;25.80;53.20;;;;;;4995755;28;20022;-70
2022/06/17 05:20:48;;;;;;;11.32;4.32;;;26.10;52.70;;;;;;4995082;28;20080;-70
2022/06/17 05:23:16;;;;;;;10.13;4.20;;;26.50;52.50;;;;;;4994811;28;20026;-72
2022/06/17 05:25:44;;;;;;;13.00;4.53;;;27.00;51.80;;;;;;4994745;28;20444;-73
2022/06/17 05:28:17;;;;;;;13.63;5.25;;;27.30;50.90;;;;;;4994829;28;20472;-72
2022/06/17 05:30:51;;;;;;;8.80;4.03;;;27.70;50.30;;;;;;5000994;28;20021;-72
2022/06/17 05:33:19;;;;;;;14.48;3.78;;;28.00;49.00;;;;;;5014546;28;20107;-71
2022/06/17 05:35:44;;;;;;;11.10;4.20;;;28.30;48.70;;;;;;4999006;28;20097;-73
2022/06/17 05:38:11;;;;;;;8.73;3.95;;;28.50;47.90;;;;;;4994523;28;20061;-71
2022/06/17 05:40:38;;;;;;;12.80;4.18;;;28.80;48.40;;;;;;5000972;28;20022;-72
2022/06/17 05:43:04;;;;;;;11.00;4.55;;;29.10;47.70;;;;;;5002964;28;20030;-73
2022/06/17 05:45:31;;;;;;;19.33;5.18;;;29.20;47.30;;;;;;4993679;28;20112;-72
2022/06/17 05:47:57;;;;;;;12.23;4.47;;;29.40;47.10;;;;;;4999485;28;20046;-71
2022/06/17 05:50:24;;;;;;;10.95;3.58;;;29.60;46.40;;;;;;5004822;28;20050;-71
2022/06/17 05:52:54;;;;;;;9.20;3.80;;;29.80;46.40;;;;;;5000631;28;20114;-72
2022/06/17 05:55:22;;;;;;;9.68;3.45;;;29.80;46.20;;;;;;4994217;28;20022;-71
2022/06/17 05:57:48;;;;;;;10.18;3.67;;;30.10;46.20;;;;;;4994264;28;20022;-72
2022/06/17 06:00:14;;;;;;;20.95;5.40;;;30.40;45.50;;;;;;4994021;28;20033;-71
2022/06/17 06:02:40;;;;;;;24.83;5.50;;;30.70;44.90;;;;;;4994167;28;20045;-73
2022/06/17 06:05:07;;;;;;;9.93;3.67;;;31.00;45.20;;;;;;4994149;28;20468;-71
2022/06/17 06:07:33;;;;;;;10.95;3.70;;;31.20;46.00;;;;;;4992554;28;20078;-70
2022/06/17 06:09:58;;;;;;;12.32;3.33;;;31.30;45.30;;;;;;4999748;28;20420;-72
2022/06/17 06:12:53;;;;;;;13.40;3.80;;;31.30;45.60;;;;;;4998755;28;20049;-74
2022/06/17 06:15:12;;;;;;;11.95;3.60;;;31.40;45.60;;;;;;4993782;28;20044;-75
2022/06/17 06:17:38;;;;;;;15.65;4.53;;;31.30;46.10;;;;;;5002401;28;20026;-73
2022/06/17 06:20:04;;;;;;;10.52;3.53;;;31.40;46.50;;;;;;5002205;28;20033;-73
2022/06/17 06:22:30;;;;;;;8.43;2.92;;;31.20;46.40;;;;;;5002168;28;20072;-72
2022/06/17 06:24:56;;;;;;;9.00;3.35;;;31.30;46.90;;;;;;5004636;28;20022;-72
2022/06/17 06:27:21;;;;;;;15.18;3.83;;;31.50;46.60;;;;;;5013612;28;20069;-73
2022/06/17 06:29:47;;;;;;;8.15;3.30;;;31.80;46.40;;;;;;5000312;28;20513;-73
2022/06/17 06:32:14;;;;;;;11.88;3.60;;;31.90;47.20;;;;;;4993539;28;20100;-70
2022/06/17 06:34:41;;;;;;;9.15;3.78;;;31.90;45.70;;;;;;4993364;28;20483;-75
2022/06/17 06:37:06;;;;;;;11.02;3.97;;;32.00;45.60;;;;;;4993096;28;20072;-72
2022/06/17 06:39:32;;;;;;;11.80;3.60;;;31.90;45.60;;;;;;4991691;28;20035;-74
2022/06/17 06:41:58;;;;;;;12.95;4.55;;;31.80;45.80;;;;;;4992013;28;20121;-76
2022/06/17 06:44:23;;;;;;;9.82;4.05;;;31.90;46.30;;;;;;4993212;28;20022;-71
2022/06/17 06:46:49;;;;;;;15.15;4.03;;;31.90;46.20;;;;;;4993813;28;20031;-73
2022/06/17 06:49:15;;;;;;;13.00;4.80;;;32.00;46.10;;;;;;4993293;28;20038;-70
2022/06/17 06:51:41;;;;;;;12.73;4.88;;;32.10;45.90;;;;;;4993060;28;20400;-70
2022/06/17 06:54:06;;;;;;;16.38;5.78;;;32.30;45.80;;;;;;4991922;28;20118;-71
2022/06/17 06:56:32;;;;;;;13.20;5.57;;;32.40;45.40;;;;;;4994514;28;20494;-72
2022/06/17 06:59:01;;;;;;;15.32;5.93;;;32.50;44.90;;;;;;5005719;28;20108;-70
2022/06/17 07:01:26;;;;;;;13.40;5.78;;;32.50;44.90;;;;;;5016480;28;20100;-71
2022/06/17 07:03:56;;;;;;;9.65;4.90;;;32.70;45.60;;;;;;5011171;28;20038;-71
2022/06/17 07:06:21;;;;;;;11.77;4.38;;;32.80;44.10;;;;;;4997172;28;20031;-73
2022/06/17 07:08:47;;;;;;;18.25;5.28;;;32.70;44.60;;;;;;4996961;28;20421;-76
2022/06/17 07:11:16;;;;;;;14.38;5.07;;;32.80;44.60;;;;;;4996920;28;20431;-72
2022/06/17 07:13:42;;;;;;;10.60;4.97;;;32.90;44.30;;;;;;4995646;28;20032;-71
2022/06/17 07:16:11;;;;;;;10.10;4.28;;;33.00;44.10;;;;;;4996898;28;20117;-72
2022/06/17 07:18:37;;;;;;;16.45;5.00;;;33.10;43.80;;;;;;4997122;28;20030;-72
2022/06/17 07:21:06;;;;;;;14.00;4.45;;;33.20;43.40;;;;;;4996935;28;20468;-71
2022/06/17 07:23:35;;;;;;;10.93;4.40;;;33.30;43.10;;;;;;4997134;28;20065;-73
2022/06/17 07:26:24;;;;;;;9.57;4.40;;;33.40;43.00;;;;;;4996934;28;20033;-74
2022/06/17 07:28:52;;;;;;;13.35;4.55;;;33.40;43.50;;;;;;4996696;28;20031;-73
2022/06/17 07:31:18;;;;;;;11.68;4.70;;;33.50;42.90;;;;;;4979264;28;20038;-72
2022/06/17 07:33:44;;;;;;;8.95;4.18;;;33.40;42.80;;;;;;4997042;28;20022;-73
2022/06/17 07:41:49;;;;;;;12.00;4.50;;;33.40;42.30;;;;;;4996763;28;20435;-70
2022/06/17 07:44:19;;;;;;;12.77;4.90;;;33.30;42.20;;;;;;4996714;28;20023;-75
2022/06/17 07:46:44;;;;;;;29.17;5.03;;;33.30;42.40;;;;;;4978887;28;20057;-77
2022/06/17 07:49:11;;;;;;;15.35;4.25;;;33.30;41.70;;;;;;4996380;28;20464;-71
2022/06/17 07:51:37;;;;;;;17.15;7.88;;;33.30;41.60;;;;;;4994709;28;20074;-72
2022/06/17 07:54:03;;;;;;;12.60;6.63;;;33.30;41.40;;;;;;4996154;28;20065;-72
2022/06/17 07:56:28;;;;;;;9.82;4.40;;;33.30;41.40;;;;;;4996233;28;20022;-75
2022/06/17 07:58:54;;;;;;;10.18;3.55;;;33.30;41.10;;;;;;4996091;28;20530;-76
2022/06/17 08:01:21;;;;;;;10.27;3.53;;;33.20;40.80;;;;;;4994498;28;20543;-73
2022/06/17 08:03:46;;;;;;;10.18;3.58;;;33.20;40.80;;;;;;4996011;28;20029;-75
2022/06/17 08:06:14;;;;;;;9.50;2.92;;;33.10;40.60;;;;;;4996090;28;20026;-75
2022/06/17 08:08:40;;;;;;;9.57;3.35;;;32.90;39.80;;;;;;4995166;28;20045;-76
2022/06/17 08:11:07;;;;;;;14.95;4.00;;;32.80;39.80;;;;;;4995850;28;20384;-74
2022/06/17 08:13:32;;;;;;;9.30;3.45;;;32.80;39.90;;;;;;4995635;28;20136;-72
2022/06/17 08:16:01;;;;;;;13.88;4.30;;;32.60;40.10;;;;;;4995757;28;20030;-75
2022/06/17 08:18:28;;;;;;;12.02;3.38;;;32.60;40.20;;;;;;4996028;28;20456;-73
2022/06/17 08:20:54;;;;;;;10.65;3.78;;;32.60;40.40;;;;;;4994022;28;20050;-71
2022/06/17 08:23:21;;;;;;;12.52;3.85;;;32.50;40.40;;;;;;4995592;28;20058;-71
2022/06/17 08:25:49;;;;;;;11.27;3.78;;;32.40;40.40;;;;;;4995366;28;20033;-74
2022/06/17 08:28:16;;;;;;;13.82;3.33;;;32.40;40.70;;;;;;4995640;28;20379;-71
2022/06/17 08:30:49;;;;;;;11.15;3.35;;;32.30;40.60;;;;;;4995177;28;20397;-72
2022/06/17 08:33:16;;;;;;;13.73;3.88;;;32.20;40.70;;;;;;4995287;28;20057;-73
2022/06/17 08:35:45;;;;;;;14.68;3.95;;;32.10;41.20;;;;;;4995481;28;20361;-71
2022/06/17 08:38:17;;;;;;;9.85;3.15;;;32.00;41.50;;;;;;4994490;28;20030;-72
2022/06/17 08:41:22;;;;;;;10.43;3.20;;;31.90;42.00;;;;;;4995598;28;20026;-73
2022/06/17 08:44:23;;;;;;;10.07;3.00;;;31.70;41.40;;;;;;4995026;28;20038;-74
2022/06/17 08:47:03;;;;;;;13.77;3.30;;;31.60;41.20;;;;;;4994027;28;20038;-71
2022/06/17 08:49:48;;;;;;;19.70;4.85;;;31.60;41.60;;;;;;4993845;28;20046;-71
2022/06/17 08:52:38;;;;;;;18.98;4.10;;;31.60;42.00;;;;;;4995019;28;20037;-72
2022/06/17 08:55:19;;;;;;;14.70;4.13;;;31.60;42.50;;;;;;4995091;28;20031;-70
2022/06/17 08:58:04;;;;;;;7.32;3.22;;;31.60;42.40;;;;;;4996100;28;20029;-73
2022/06/17 09:00:33;;;;;;;13.20;3.80;;;31.60;43.00;;;;;;4997002;28;20093;-75
2022/06/17 09:03:31;;;;;;;13.13;2.90;;;31.50;43.20;;;;;;4996887;28;20094;-73
2022/06/17 09:06:37;;;;;;;11.07;3.38;;;31.40;41.80;;;;;;4994977;28;20126;-75
2022/06/17 09:09:50;;;;;;;11.23;3.08;;;31.40;43.10;;;;;;4993269;28;20505;-74
2022/06/17 09:12:37;;;;;;;16.88;2.92;;;31.50;41.80;;;;;;4990979;28;20088;-72
2022/06/17 09:15:27;;;;;;;6.68;2.60;;;31.40;41.70;;;;;;4994760;28;20030;-73
2022/06/17 09:18:07;;;;;;;11.75;4.10;;;31.30;39.90;;;;;;4994727;28;20030;-73
2022/06/17 09:20:39;;;;;;;11.48;3.65;;;31.30;39.80;;;;;;4993413;28;20038;-74
2022/06/17 09:23:05;;;;;;;11.48;3.58;;;31.40;38.90;;;;;;4994568;28;20022;-71
2022/06/17 09:25:41;;;;;;;11.98;4.80;;;31.50;39.60;;;;;;4994237;28;20544;-73
2022/06/17 09:28:14;;;;;;;8.18;3.25;;;31.60;40.40;;;;;;4994119;28;20034;-76
2022/06/17 09:30:51;;;;;;;11.85;3.17;;;31.70;39.90;;;;;;4994341;28;20097;-71
2022/06/17 09:33:26;;;;;;;12.65;2.83;;;31.70;39.30;;;;;;4992898;28;20023;-72
2022/06/17 09:36:22;;;;;;;9.95;3.50;;;31.80;39.70;;;;;;4994522;28;20037;-72
2022/06/17 09:39:10;;;;;;;12.48;3.55;;;31.80;40.20;;;;;;4992885;28;20119;-73
2022/06/17 09:41:45;;;;;;;11.43;3.30;;;31.80;40.30;;;;;;4974939;28;20030;-71
2022/06/17 09:44:16;;;;;;;9.32;3.08;;;31.90;41.00;;;;;;4992793;28;20116;-73
2022/06/17 09:47:04;;;;;;;9.30;3.40;;;31.90;40.80;;;;;;4993751;28;20061;-75
2022/06/17 09:49:36;;;;;;;6.05;3.47;;;32.00;40.80;;;;;;4988457;28;20403;-74
2022/06/17 09:52:11;;;;;;;11.40;3.60;;;32.00;40.90;;;;;;4992500;28;20050;-74
2022/06/17 09:54:46;;;;;;;10.77;3.80;;;32.00;40.40;;;;;;4994430;28;20081;-71
2022/06/17 09:57:29;;;;;;;7.70;3.35;;;32.00;39.80;;;;;;4993898;28;20054;-74
2022/06/17 10:00:09;;;;;;;8.23;3.15;;;32.10;39.40;;;;;;4993877;28;20030;-74
2022/06/17 10:02:49;;;;;;;13.48;3.42;;;32.20;40.20;;;;;;4992568;28;20065;-74
2022/06/17 10:05:43;;;;;;;9.75;3.63;;;32.30;39.70;;;;;;4993075;28;20110;-73
2022/06/17 10:08:38;;;;;;;10.23;3.85;;;32.30;40.00;;;;;;4993954;28;20038;-70
2022/06/17 10:11:07;;;;;;;9.25;3.78;;;32.40;40.00;;;;;;4993803;28;20030;-77
2022/06/17 10:13:50;;;;;;;18.05;4.05;;;32.50;40.00;;;;;;4993631;28;20026;-73
2022/06/17 10:19:46;;;;;;;11.18;3.33;;;32.60;39.90;;;;;;4993729;28;20077;-73
2022/06/17 10:22:56;;;;;;;19.30;4.20;;;32.60;39.70;;;;;;4993505;28;20046;-71
2022/06/17 10:25:35;;;;;;;12.75;3.67;;;32.70;39.60;;;;;;4991414;28;20030;-71
2022/06/17 10:28:07;;;;;;;14.38;4.03;;;32.80;39.70;;;;;;4993319;28;20123;-74
2022/06/17 10:31:08;;;;;;;8.32;3.75;;;32.80;39.40;;;;;;4993027;28;20384;-77
2022/06/17 10:33:37;;;;;;;13.57;4.45;;;32.80;39.40;;;;;;4993843;28;20036;-74
2022/06/17 10:36:04;;;;;;;15.68;6.70;;;32.80;38.60;;;;;;4993672;28;20018;-74
2022/06/17 10:38:45;;;;;;;12.48;5.15;;;32.80;39.00;;;;;;4993401;28;20027;-77
2022/06/17 10:41:12;;;;;;;11.10;4.90;;;32.80;38.90;;;;;;4993132;28;20467;-77
2022/06/17 10:43:43;;;;;;;11.15;5.03;;;32.90;39.50;;;;;;4993320;28;20026;-75
2022/06/17 10:46:22;;;;;;;13.10;5.57;;;33.00;38.70;;;;;;4993171;28;20038;-74
2022/06/17 10:49:03;;;;;;;19.98;7.55;;;33.00;38.70;;;;;;4992562;28;20491;-77
2022/06/17 10:51:33;;;;;;;18.25;7.43;;;33.10;40.30;;;;;;4992798;28;20471;-76
2022/06/17 10:54:04;;;;;;;21.13;7.68;;;33.20;39.80;;;;;;4992001;28;20034;-77
2022/06/17 10:56:46;;;;;;;19.45;8.02;;;33.30;39.90;;;;;;4993086;28;20018;-76
2022/06/17 10:59:13;;;;;;;20.73;7.88;;;33.30;39.70;;;;;;4991922;28;20556;-78
2022/06/17 11:01:45;;;;;;;13.93;6.63;;;33.30;40.30;;;;;;4992181;28;20030;-78
2022/06/17 11:04:15;;;;;;;11.88;7.07;;;33.30;40.80;;;;;;4993253;28;20037;-76
2022/06/17 11:07:30;;;;;;;17.60;7.10;;;33.30;40.20;;;;;;4993063;28;20084;-74
2022/06/17 11:10:16;;;;;;;20.00;6.75;;;33.40;41.50;;;;;;4988387;28;20045;-74
2022/06/17 11:13:04;;;;;;;24.10;6.93;;;33.40;42.90;;;;;;4993373;28;20029;-71
2022/06/17 11:15:35;;;;;;;15.25;6.32;;;33.50;43.50;;;;;;4992528;28;20053;-74
2022/06/17 11:18:13;;;;;;;12.32;5.90;;;33.60;44.30;;;;;;4992935;28;20029;-72
2022/06/17 11:20:42;;;;;;;18.75;6.53;;;33.60;43.80;;;;;;4993221;28;20105;-73
2022/06/17 11:23:25;;;;;;;13.85;6.35;;;33.70;43.50;;;;;;4993407;28;20124;-72
2022/06/17 11:26:26;;;;;;;14.55;6.03;;;33.70;43.50;;;;;;4993492;28;20096;-72
2022/06/17 11:29:00;;;;;;;11.57;5.88;;;33.70;43.90;;;;;;4993307;28;20030;-71
2022/06/17 11:31:34;;;;;;;13.65;5.13;;;33.70;44.00;;;;;;4993851;28;20022;-71
2022/06/17 11:34:11;;;;;;;10.30;4.82;;;33.70;44.10;;;;;;4993986;28;20030;-73
2022/06/17 11:37:04;;;;;;;11.40;5.28;;;33.70;44.40;;;;;;4992824;28;20015;-71
2022/06/17 11:39:36;;;;;;;15.07;5.13;;;33.70;44.30;;;;;;4992816;28;20026;-74
2022/06/17 11:42:24;;;;;;;11.57;4.20;;;33.70;43.80;;;;;;4993167;28;20023;-73
2022/06/17 11:44:56;;;;;;;10.43;3.40;;;33.70;43.40;;;;;;4995793;28;20486;-73
2022/06/17 11:47:24;;;;;;;13.45;3.70;;;33.70;43.00;;;;;;4996140;28;20033;-73
2022/06/17 11:49:54;;;;;;;17.58;3.75;;;33.70;41.00;;;;;;4996260;28;20023;-75
2022/06/17 11:52:33;;;;;;;16.63;4.20;;;33.60;40.90;;;;;;4996524;28;20026;-73
2022/06/17 11:55:00;;;;;;;10.75;3.60;;;33.60;40.60;;;;;;4995169;28;20039;-74
2022/06/17 11:57:35;;;;;;;12.48;3.30;;;33.70;40.60;;;;;;4996103;28;20042;-74
2022/06/17 12:00:07;;;;;;;13.27;3.25;;;33.70;40.70;;;;;;4996281;28;20109;-73
2022/06/17 12:02:33;;;;;;;8.32;2.80;;;33.60;40.80;;;;;;4996117;28;20022;-74
2022/06/17 12:05:21;;;;;;;9.82;3.28;;;33.60;40.90;;;;;;4996093;28;20080;-73
2022/06/17 12:08:08;;;;;;;6.65;2.90;;;33.60;40.50;;;;;;4996040;28;20069;-73
2022/06/17 12:10:49;;;;;;;6.70;3.17;;;33.60;42.60;;;;;;4995918;28;20452;-73
2022/06/17 12:13:39;;;;;;;8.02;2.70;;;33.60;42.30;;;;;;4996191;28;20105;-74
2022/06/17 12:16:16;;;;;;;9.13;2.83;;;33.50;42.70;;;;;;4995976;28;20018;-74
2022/06/17 12:18:47;;;;;;;7.90;2.80;;;33.50;43.10;;;;;;4994587;28;20077;-71
2022/06/17 12:21:16;;;;;;;12.85;3.03;;;33.50;43.30;;;;;;4995869;28;20056;-75
2022/06/17 12:23:47;;;;;;;12.55;2.90;;;33.60;44.00;;;;;;4996008;28;20080;-74
2022/06/17 12:26:37;;;;;;;6.28;2.28;;;33.50;44.10;;;;;;4996021;28;20472;-72
2022/06/17 12:29:32;;;;;;;11.40;2.90;;;33.40;45.20;;;;;;4995400;28;20070;-74
2022/06/17 12:32:14;;;;;;;6.50;2.38;;;33.30;44.40;;;;;;4990833;28;20385;-74
2022/06/17 12:34:46;;;;;;;7.90;2.53;;;33.30;44.30;;;;;;4996236;28;20022;-77
2022/06/17 12:37:17;;;;;;;10.10;3.03;;;33.20;44.20;;;;;;4996205;28;20026;-75
2022/06/17 12:39:52;;;;;;;13.30;2.90;;;33.20;45.90;;;;;;4995819;28;20114;-77
2022/06/17 12:42:35;;;;;;;6.68;2.63;;;33.30;44.30;;;;;;4995542;28;20106;-74
2022/06/17 12:45:10;;;;;;;5.32;2.20;;;33.30;45.80;;;;;;4995512;28;20518;-73
2022/06/17 12:47:50;;;;;;;8.60;2.30;;;33.40;44.40;;;;;;4995527;28;20049;-75
2022/06/17 12:53:21;;;;;;;6.75;2.08;;;33.40;42.70;;;;;;4995408;28;20069;-73
2022/06/17 12:56:08;;;;;;;9.63;2.65;;;33.40;42.90;;;;;;4995348;28;20491;-75
2022/06/17 12:59:17;;;;;;;8.32;2.92;;;33.50;42.40;;;;;;4995510;28;20062;-76
2022/06/17 13:01:58;;;;;;;11.10;2.42;;;33.50;41.70;;;;;;4994821;28;20476;-77
2022/06/17 13:04:55;;;;;;;8.93;2.50;;;33.40;42.40;;;;;;4993613;28;20121;-75
2022/06/17 13:07:50;;;;;;;8.80;2.45;;;33.30;42.10;;;;;;4995334;28;20467;-77
2022/06/17 13:10:40;;;;;;;9.48;2.58;;;33.30;41.90;;;;;;4975266;28;20498;-71
2022/06/17 13:13:26;;;;;;;8.07;2.40;;;33.30;42.40;;;;;;4995040;28;20452;-71
2022/06/17 13:16:04;;;;;;;15.95;3.20;;;33.30;42.50;;;;;;4994783;28;20088;-73
2022/06/17 13:19:07;;;;;;;9.63;2.85;;;33.10;42.00;;;;;;4993619;28;20451;-74
2022/06/17 13:21:45;;;;;;;13.90;4.10;;;33.00;42.80;;;;;;4994904;28;20030;-72
2022/06/17 13:24:33;;;;;;;7.03;2.50;;;33.00;43.70;;;;;;4994584;28;20416;-72
2022/06/17 13:27:24;;;;;;;9.90;2.28;;;32.90;44.20;;;;;;4994683;28;20034;-72
2022/06/17 13:30:22;;;;;;;14.95;3.15;;;32.80;44.60;;;;;;4993934;28;20440;-73